Current Weather

Richmond

Richmond, Australia (YSRI)

Report from: Friday, April 19, 2024 7:30 PM AEST
Current time: Friday, April 19, 2024 7:45 PM AEST

Nearby weather – Weather history – Daily summaries
Weather forecast

Temperature17.0°C (62.6°F)
Dew point13.0°C (55.4°F)
Winds 7 kts (3.6 m/s, 8.1 mph) South (180°)
Visibility6.2 mi. (10 km)
Clouds Sky clear
Altimeter30.15 in.Hg (1021 mB)
Relative humidity77 %
Density altitude183 ft. (56 m)
Remarks Fully automated report
No clouds detected
Flight conditions Visual Meteorological Conditions
Raw dataYSRI 190930Z AUTO 18007KT 9999 // NCD 17/13 Q1021 RF00.0/000.2
An error has occurred. This application may no longer respond until reloaded. Reload 🗙